Time;durP1;ratioP1;P1;durP2;ratioP2;P2;SDS_P1;SDS_P2;PMS_P1;PMS_P2;Temp;Humidity;BMP_temperature;BMP_pressure;BME280_temperature;BME280_humidity;BME280_pressure;Samples;Min_cycle;Max_cycle;Signal;HPM_P1;HPM_P2
2022/12/29 00:01:29;;;;;;;17.75;9.88;;;;;;;3.42;100.00;101748.53;5029939;28;20044;-74
2022/12/29 00:03:55;;;;;;;20.42;9.95;;;;;;;3.43;100.00;101756.31;5029165;28;20025;-73
2022/12/29 00:06:20;;;;;;;16.90;9.93;;;;;;;3.33;100.00;101736.75;5029697;28;20095;-73
2022/12/29 00:08:46;;;;;;;19.92;9.35;;;;;;;3.32;100.00;101745.16;5029725;28;20025;-73
2022/12/29 00:11:15;;;;;;;19.33;9.27;;;;;;;3.39;100.00;101756.81;5029497;28;20025;-73
2022/12/29 00:16:25;;;;;;;16.17;9.48;;;;;;;3.06;100.00;101719.94;5029982;28;20036;-73
2022/12/29 00:18:50;;;;;;;18.15;9.18;;;;;;;3.34;100.00;101758.06;5029563;28;20108;-73
2022/12/29 00:45:41;;;;;;;16.88;8.43;;;;;;;2.78;100.00;101721.72;5030033;28;20091;-73
2022/12/29 00:48:07;;;;;;;17.00;8.73;;;;;;;2.87;100.00;101731.06;5030268;28;20563;-73
2022/12/29 00:50:32;;;;;;;14.63;8.40;;;;;;;3.22;100.00;101769.00;5032823;28;20045;-73
2022/12/29 00:52:58;;;;;;;19.80;9.00;;;;;;;3.35;100.00;101770.06;5034277;28;20407;-74
2022/12/29 00:55:23;;;;;;;16.33;8.73;;;;;;;3.42;100.00;101766.41;5014821;28;20034;-75
2022/12/29 00:57:48;;;;;;;13.02;7.97;;;;;;;3.54;100.00;101768.34;5033530;28;20062;-75
2022/12/29 01:00:15;;;;;;;17.77;8.43;;;;;;;3.63;100.00;101763.13;5033616;28;20052;-76
2022/12/29 01:02:40;;;;;;;16.85;8.20;;;;;;;3.58;100.00;101743.06;5033258;28;20495;-75
2022/12/29 01:05:06;;;;;;;16.30;8.30;;;;;;;3.35;100.00;101740.34;5033586;28;20029;-75
2022/12/29 01:07:31;;;;;;;13.93;8.10;;;;;;;3.47;100.00;101760.91;5033671;28;20025;-75
2022/12/29 01:10:12;;;;;;;11.30;7.43;;;;;;;3.56;100.00;101761.72;5033146;28;20029;-76
2022/12/29 01:12:40;;;;;;;17.05;8.05;;;;;;;3.61;100.00;101757.00;5033529;28;20021;-75
2022/12/29 01:15:09;;;;;;;16.50;8.07;;;;;;;3.48;100.00;101715.88;5032696;28;20108;-75
2022/12/29 01:17:34;;;;;;;15.48;8.07;;;;;;;3.65;100.00;101763.25;4982072;28;20029;-75
2022/12/29 01:20:00;;;;;;;14.43;7.60;;;;;;;3.48;100.00;101744.84;5032940;28;20028;-76
2022/12/29 01:22:25;;;;;;;15.48;8.35;;;;;;;3.42;100.00;101745.97;5033082;28;20025;-76
2022/12/29 01:24:51;;;;;;;14.55;7.72;;;;;;;3.30;100.00;101758.56;5032940;28;20426;-76
2022/12/29 01:27:16;;;;;;;17.42;7.80;;;;;;;3.20;100.00;101756.84;5032553;28;20017;-75
2022/12/29 01:29:42;;;;;;;14.48;8.57;;;;;;;3.20;100.00;101746.66;5032652;28;20033;-75
2022/12/29 01:32:07;;;;;;;18.05;8.27;;;;;;;3.06;100.00;101730.13;5033104;28;20079;-75
2022/12/29 01:34:33;;;;;;;13.02;7.30;;;;;;;2.91;100.00;101709.28;5032393;28;20077;-76
2022/12/29 01:36:58;;;;;;;13.93;7.68;;;;;;;2.96;100.00;101742.84;4978775;28;20091;-75
2022/12/29 01:39:24;;;;;;;17.10;8.45;;;;;;;2.71;100.00;101741.56;5032397;28;20091;-75
2022/12/29 01:41:49;;;;;;;14.50;8.00;;;;;;;2.72;100.00;101740.81;5032692;28;20028;-75
2022/12/29 01:44:48;;;;;;;16.33;8.70;;;;;;;2.87;100.00;101740.41;5032454;28;20029;-75
2022/12/29 01:47:25;;;;;;;18.55;8.18;;;;;;;2.70;100.00;101739.78;5032202;28;20080;-75
2022/12/29 01:49:54;;;;;;;12.18;7.63;;;;;;;2.02;100.00;101664.00;5032543;28;20037;-75
2022/12/29 01:52:20;;;;;;;16.13;8.02;;;;;;;2.42;100.00;101742.41;5032969;28;20061;-75
2022/12/29 01:54:52;;;;;;;12.27;8.13;;;;;;;2.51;100.00;101741.47;5032294;28;20385;-75
2022/12/29 01:57:24;;;;;;;15.68;7.72;;;;;;;2.51;100.00;101721.94;5032419;28;20057;-75
2022/12/29 01:59:56;;;;;;;15.40;8.57;;;;;;;2.56;100.00;101732.56;5032019;28;20025;-77
2022/12/29 02:02:23;;;;;;;15.45;8.23;;;;;;;2.63;100.00;101740.00;5032317;28;20088;-77
2022/12/29 02:04:48;;;;;;;14.50;8.23;;;;;;;2.70;100.00;101723.59;5032199;28;20499;-77
2022/12/29 02:07:19;;;;;;;15.27;8.35;;;;;;;2.68;100.00;101720.00;5030022;28;20021;-75
2022/12/29 02:09:48;;;;;;;17.00;8.85;;;;;;;2.68;100.00;101732.75;5014400;28;20471;-76
2022/12/29 02:12:14;;;;;;;;;;;;;;;2.60;100.00;101737.16;5032331;28;20040;-77
2022/12/29 02:14:40;;;;;;;14.98;8.05;;;;;;;2.50;100.00;101727.78;5031606;28;19913;-77
2022/12/29 02:17:27;;;;;;;11.15;6.82;;;;;;;2.51;100.00;101731.25;5032164;28;20403;-77
2022/12/29 02:20:29;;;;;;;15.20;6.60;;;;;;;2.55;100.00;101734.19;5031788;28;20064;-77
2022/12/29 02:23:15;;;;;;;13.85;6.53;;;;;;;2.56;100.00;101730.00;5031110;28;20025;-76
2022/12/29 02:26:10;;;;;;;13.65;7.10;;;;;;;2.68;100.00;101731.09;5029374;28;20103;-74
2022/12/29 02:29:17;;;;;;;16.45;6.88;;;;;;;2.83;100.00;101735.75;5007255;28;20034;-77
2022/12/29 02:31:52;;;;;;;14.52;6.40;;;;;;;2.87;100.00;101735.28;5009359;28;20093;-77
2022/12/29 02:34:33;;;;;;;10.98;7.05;;;;;;;2.86;100.00;101731.81;5009170;28;20054;-77
2022/12/29 02:37:13;;;;;;;10.82;6.47;;;;;;;2.71;100.00;101720.28;5009504;28;20030;-77
2022/12/29 02:40:08;;;;;;;11.93;5.25;;;;;;;2.65;100.00;101732.50;5008889;28;20057;-77
2022/12/29 02:42:49;;;;;;;12.90;7.10;;;;;;;2.65;100.00;101728.28;4931754;29;20473;-77
2022/12/29 02:45:31;;;;;;;13.00;5.88;;;;;;;2.71;100.00;101726.25;4931768;29;20028;-77
2022/12/29 02:48:20;;;;;;;16.67;8.10;;;;;;;2.79;100.00;101719.31;4931082;29;20040;-77
2022/12/29 02:51:10;;;;;;;11.95;6.40;;;;;;;2.74;100.00;101700.13;4931825;29;20048;-74
2022/12/29 02:56:20;;;;;;;13.98;7.18;;;;;;;2.94;100.00;101717.22;4931113;29;20140;-76
2022/12/29 02:58:46;;;;;;;14.88;6.82;;;;;;;2.94;100.00;101703.56;4931483;29;20517;-74
2022/12/29 03:01:29;;;;;;;12.65;6.63;;;;;;;3.05;100.00;101718.13;4931442;29;20036;-73
2022/12/29 03:04:42;;;;;;;12.77;6.65;;;;;;;3.05;100.00;101711.41;4931340;29;20046;-74
2022/12/29 03:07:16;;;;;;;12.32;6.97;;;;;;;3.07;100.00;101712.41;4874754;29;20044;-75
2022/12/29 03:09:52;;;;;;;21.77;9.63;;;;;;;3.03;100.00;101709.47;4874842;29;20037;-73
2022/12/29 03:18:41;;;;;;;23.27;10.70;;;;;;;3.19;100.00;101710.03;4874228;29;20098;-73
2022/12/29 03:24:21;;;;;;;15.88;8.38;;;;;;;3.19;100.00;101711.69;4912300;29;20119;-74
2022/12/29 03:30:11;;;;;;;15.40;8.90;;;;;;;3.12;100.00;101711.94;5061692;23;20065;-73
2022/12/29 03:32:41;;;;;;;15.93;8.85;;;;;;;3.06;100.00;101710.63;5031827;28;20788;-73
2022/12/29 03:35:09;;;;;;;18.42;9.63;;;;;;;3.13;100.00;101714.63;4997063;28;20037;-73
2022/12/29 03:37:40;;;;;;;20.35;10.55;;;;;;;3.10;100.00;101721.09;4999560;28;20096;-75
2022/12/29 03:40:07;;;;;;;27.38;12.98;;;;;;;3.02;100.00;101706.00;5011415;28;20034;-74
2022/12/29 03:42:35;;;;;;;23.92;11.45;;;;;;;2.89;100.00;101715.91;4960568;28;20184;-73
2022/12/29 03:45:01;;;;;;;25.15;12.70;;;;;;;2.52;100.00;101684.63;5011071;28;20519;-72
2022/12/29 03:47:26;;;;;;;21.15;11.43;;;;;;;2.79;100.00;101718.41;5011501;28;20025;-73
2022/12/29 03:49:52;;;;;;;28.58;12.93;;;;;;;2.73;100.00;101717.09;5011102;28;20408;-73
2022/12/29 03:52:18;;;;;;;26.48;12.07;;;;;;;2.65;100.00;101701.88;5011039;28;20037;-76
2022/12/29 03:54:44;;;;;;;22.88;11.57;;;;;;;2.39;100.00;101686.06;5011919;28;20026;-75
2022/12/29 03:57:10;;;;;;;22.60;11.05;;;;;;;2.49;100.00;101697.06;5011480;28;20064;-73
2022/12/29 03:59:36;;;;;;;28.17;12.00;;;;;;;2.46;100.00;101692.59;5011699;28;20034;-75
2022/12/29 04:02:01;;;;;;;23.25;11.63;;;;;;;2.47;100.00;101707.16;5011597;28;20096;-73
2022/12/29 04:04:27;;;;;;;23.17;11.38;;;;;;;2.38;100.00;101701.22;5011687;28;20057;-74
2022/12/29 04:06:52;;;;;;;24.35;11.23;;;;;;;2.42;100.00;101710.94;5011539;28;20480;-73
2022/12/29 04:09:18;;;;;;;31.75;12.80;;;;;;;2.43;100.00;101711.06;5011419;28;20022;-75
2022/12/29 04:11:43;;;;;;;29.10;13.57;;;;;;;2.42;100.00;101710.94;5011341;28;20460;-73
2022/12/29 04:14:08;;;;;;;22.40;11.93;;;;;;;2.32;100.00;101705.75;5011587;28;20033;-75
2022/12/29 04:16:38;;;;;;;20.65;11.13;;;;;;;2.31;100.00;101709.97;5011579;28;20168;-74
2022/12/29 04:19:04;;;;;;;;;;;;;;;2.19;100.00;101703.75;5011818;28;20033;-72
2022/12/29 04:21:29;;;;;;;27.27;10.77;;;;;;;1.84;100.00;101668.34;5011393;28;19913;-74
2022/12/29 04:23:55;;;;;;;25.05;10.55;;;;;;;2.02;100.00;101712.41;5011133;28;20040;-74
2022/12/29 04:26:20;;;;;;;22.70;10.40;;;;;;;1.98;100.00;101703.63;5011472;28;20028;-76
2022/12/29 04:28:45;;;;;;;20.67;10.77;;;;;;;2.07;100.00;101712.09;5011469;28;20058;-74
2022/12/29 04:31:11;;;;;;;21.67;11.32;;;;;;;1.87;100.00;101681.34;5011030;28;20516;-74
2022/12/29 04:33:36;;;;;;;25.20;11.45;;;;;;;2.07;100.00;101708.66;5011148;28;20033;-74
2022/12/29 04:36:02;;;;;;;21.00;10.45;;;;;;;2.09;100.00;101715.69;5011097;28;20025;-75
2022/12/29 04:38:27;;;;;;;31.02;12.05;;;;;;;2.13;100.00;101726.13;5011111;28;20029;-75
2022/12/29 04:40:54;;;;;;;23.27;10.70;;;;;;;2.15;100.00;101735.69;5028680;28;20029;-74
2022/12/29 04:43:21;;;;;;;24.48;10.68;;;;;;;1.91;100.00;101698.72;5030659;28;20026;-74
2022/12/29 04:45:46;;;;;;;23.73;11.43;;;;;;;2.10;100.00;101721.66;5030809;28;20033;-75
2022/12/29 04:48:12;;;;;;;27.10;12.40;;;;;;;2.13;100.00;101721.03;5030720;28;20037;-75
2022/12/29 04:50:39;;;;;;;41.63;16.52;;;;;;;1.91;100.00;101684.31;5030606;28;20037;-75
2022/12/29 04:53:04;;;;;;;35.05;13.20;;;;;;;2.06;100.00;101720.47;5030523;28;20112;-74
2022/12/29 04:55:30;;;;;;;27.50;12.50;;;;;;;1.95;100.00;101693.13;5030599;28;20104;-76
2022/12/29 04:57:55;;;;;;;20.95;10.82;;;;;;;2.01;100.00;101695.34;4995910;28;20041;-74
2022/12/29 05:00:21;;;;;;;21.92;10.88;;;;;;;1.98;100.00;101695.06;5016006;28;20030;-74
2022/12/29 05:02:46;;;;;;;27.90;11.18;;;;;;;2.19;100.00;101721.59;5010903;28;20415;-72
2022/12/29 05:05:12;;;;;;;23.30;11.60;;;;;;;2.11;100.00;101728.53;5010244;28;20041;-73
2022/12/29 05:07:37;;;;;;;23.92;12.27;;;;;;;2.08;100.00;101735.88;5010275;28;20119;-74
2022/12/29 05:10:04;;;;;;;25.92;12.32;;;;;;;2.05;100.00;101733.97;5010849;28;20476;-74
2022/12/29 05:12:31;;;;;;;31.83;13.48;;;;;;;2.16;100.00;101737.50;5010854;28;20037;-73
2022/12/29 05:14:56;;;;;;;22.58;11.98;;;;;;;2.26;100.00;101729.03;5010943;28;20038;-74
2022/12/29 05:17:22;;;;;;;30.73;14.57;;;;;;;2.40;100.00;101731.16;5010835;28;20113;-74
2022/12/29 05:19:47;;;;;;;28.30;13.15;;;;;;;2.48;100.00;101736.06;5007691;28;20049;-74
2022/12/29 05:22:13;;;;;;;24.98;13.52;;;;;;;2.37;100.00;101691.78;5008772;28;20034;-75
2022/12/29 05:24:38;;;;;;;32.03;14.48;;;;;;;2.63;100.00;101722.16;4962369;28;20047;-74
2022/12/29 05:27:03;;;;;;;27.35;12.18;;;;;;;2.67;100.00;101728.44;4990946;28;20124;-75
2022/12/29 05:32:25;;;;;;;23.05;11.07;;;;;;;2.68;100.00;101720.91;5543038;23;20048;-74
2022/12/29 05:34:50;;;;;;;21.80;10.95;;;;;;;2.56;100.00;101686.66;4933386;29;20428;-74
2022/12/29 05:37:16;;;;;;;26.63;11.68;;;;;;;2.79;100.00;101728.59;4936775;29;20032;-75
2022/12/29 05:39:41;;;;;;;16.58;9.63;;;;;;;2.77;100.00;101720.81;4919834;29;20035;-75
2022/12/29 05:42:07;;;;;;;20.02;10.65;;;;;;;2.82;100.00;101728.91;4937006;29;20070;-75
2022/12/29 05:44:32;;;;;;;24.30;12.27;;;;;;;2.81;100.00;101737.31;4937024;29;20035;-75
2022/12/29 05:46:58;;;;;;;25.55;13.25;;;;;;;2.61;100.00;101695.63;4936419;29;20056;-75
2022/12/29 05:49:23;;;;;;;27.83;14.48;;;;;;;2.84;100.00;101732.44;4936845;29;20066;-75
2022/12/29 05:51:49;;;;;;;30.90;19.38;;;;;;;2.91;100.00;101729.69;4936437;29;20034;-74
2022/12/29 05:54:14;;;;;;;26.52;16.58;;;;;;;2.95;100.00;101734.28;4902641;29;20138;-75
2022/12/29 05:56:40;;;;;;;37.78;23.50;;;;;;;2.96;100.00;101725.00;4936514;29;20046;-78
2022/12/29 05:59:05;;;;;;;25.13;14.43;;;;;;;3.02;100.00;101728.97;4936673;29;20115;-75
2022/12/29 06:01:30;;;;;;;26.20;12.57;;;;;;;3.10;100.00;101732.19;4936479;29;20125;-74
2022/12/29 06:03:56;;;;;;;25.00;14.02;;;;;;;2.84;100.00;101686.53;4936522;29;20030;-75
2022/12/29 06:06:21;;;;;;;29.40;15.65;;;;;;;3.14;100.00;101736.81;4936191;29;20454;-74
2022/12/29 06:08:47;;;;;;;27.80;14.60;;;;;;;2.92;100.00;101698.31;4936380;29;20128;-74
2022/12/29 06:11:12;;;;;;;23.00;12.00;;;;;;;3.11;100.00;101738.22;4936376;29;20061;-75
2022/12/29 06:13:38;;;;;;;21.88;10.73;;;;;;;2.87;100.00;101703.00;4931253;29;20058;-76
2022/12/29 06:16:04;;;;;;;33.33;11.45;;;;;;;3.05;100.00;101744.56;4926404;29;20422;-74
2022/12/29 06:18:29;;;;;;;19.15;10.75;;;;;;;2.79;100.00;101718.41;4935913;29;20031;-73
2022/12/29 06:21:00;;;;;;;22.45;10.63;;;;;;;2.88;100.00;101749.84;4918060;29;20032;-74
2022/12/29 06:23:25;;;;;;;21.40;10.30;;;;;;;2.67;100.00;101711.47;4916893;29;20406;-75
2022/12/29 06:25:51;;;;;;;19.45;10.60;;;;;;;2.88;100.00;101749.84;4916914;29;20045;-74
2022/12/29 06:28:17;;;;;;;17.63;10.20;;;;;;;2.89;100.00;101749.97;4899978;29;20042;-76
2022/12/29 06:30:45;;;;;;;19.35;11.73;;;;;;;2.94;100.00;101752.03;4927430;29;20032;-75
2022/12/29 06:33:10;;;;;;;26.83;15.23;;;;;;;2.94;100.00;101755.50;4909373;29;20090;-74
2022/12/29 06:35:37;;;;;;;22.80;13.00;;;;;;;2.83;100.00;101743.41;4925290;29;20470;-72
2022/12/29 06:38:02;;;;;;;24.45;12.55;;;;;;;2.95;100.00;101761.47;4926656;29;20020;-74
2022/12/29 06:40:27;;;;;;;22.00;12.23;;;;;;;2.96;100.00;101756.50;4924591;29;20032;-74
2022/12/29 06:42:53;;;;;;;22.55;11.40;;;;;;;3.00;100.00;101758.53;4925969;29;20041;-74
2022/12/29 06:45:18;;;;;;;20.02;10.68;;;;;;;2.94;100.00;101747.84;4927866;29;20059;-75
2022/12/29 06:47:44;;;;;;;20.48;11.18;;;;;;;3.03;100.00;101757.94;4929576;29;20023;-75
2022/12/29 06:50:09;;;;;;;23.25;11.23;;;;;;;3.04;100.00;101773.38;4925359;29;20039;-74
2022/12/29 06:52:34;;;;;;;17.52;10.60;;;;;;;2.95;100.00;101756.38;4930635;29;20035;-74
2022/12/29 06:55:00;;;;;;;21.63;10.95;;;;;;;3.03;100.00;101755.41;4929165;29;20606;-74
2022/12/29 06:57:26;;;;;;;20.58;10.65;;;;;;;3.06;100.00;101769.28;4931244;29;20039;-75
2022/12/29 06:59:52;;;;;;;20.58;11.50;;;;;;;2.48;100.00;101668.16;4929425;29;20031;-75
2022/12/29 07:02:20;;;;;;;22.23;11.60;;;;;;;2.80;100.00;101722.75;4912584;29;20048;-75
2022/12/29 07:04:46;;;;;;;24.77;11.75;;;;;;;3.04;100.00;101760.63;4929363;29;20095;-74
2022/12/29 07:07:11;;;;;;;21.60;11.20;;;;;;;3.00;100.00;101761.09;4931522;29;20035;-74
2022/12/29 07:09:36;;;;;;;18.63;10.98;;;;;;;2.95;100.00;101758.91;4931681;29;20047;-76
2022/12/29 07:12:02;;;;;;;18.42;11.45;;;;;;;2.94;100.00;101752.94;4932419;29;20123;-76
2022/12/29 07:14:27;;;;;;;21.55;12.13;;;;;;;2.86;100.00;101736.94;4916444;29;20091;-75
2022/12/29 07:16:53;;;;;;;21.50;11.40;;;;;;;3.02;100.00;101753.59;4932213;29;20100;-75
2022/12/29 07:19:18;;;;;;;22.30;13.18;;;;;;;2.99;100.00;101740.56;4900530;29;20130;-74
2022/12/29 07:21:44;;;;;;;26.45;12.48;;;;;;;3.05;100.00;101734.38;4924207;29;20577;-75
2022/12/29 07:24:09;;;;;;;22.90;13.73;;;;;;;3.37;100.00;101756.66;4913039;29;20647;-75
2022/12/29 07:26:36;;;;;;;21.10;12.75;;;;;;;3.35;100.00;101734.31;4913029;29;20040;-74
2022/12/29 07:29:02;;;;;;;26.90;15.18;;;;;;;3.53;100.00;101756.34;4912863;29;20799;-75
2022/12/29 07:31:27;;;;;;;27.65;16.92;;;;;;;3.47;100.00;101719.19;4912611;29;20103;-75
2022/12/29 07:33:54;;;;;;;24.65;13.88;;;;;;;3.77;100.00;101756.66;4921918;29;20625;-75
2022/12/29 07:36:19;;;;;;;24.30;12.52;;;;;;;3.79;100.00;101749.09;4915296;29;20521;-75
2022/12/29 07:38:44;;;;;;;23.55;12.63;;;;;;;3.63;100.00;101712.06;4915255;29;20111;-75
2022/12/29 07:41:10;;;;;;;22.30;12.98;;;;;;;3.95;100.00;101757.31;4915508;29;20036;-74
2022/12/29 07:43:35;;;;;;;21.60;13.63;;;;;;;4.03;100.00;101740.06;4915406;29;20495;-75
2022/12/29 07:46:01;;;;;;;26.67;13.30;;;;;;;4.18;100.00;101748.13;4881617;29;20083;-75
2022/12/29 07:48:26;;;;;;;20.52;12.73;;;;;;;4.26;100.00;101743.66;4915177;29;20043;-75
2022/12/29 07:50:53;;;;;;;25.33;13.65;;;;;;;4.37;100.00;101748.91;4914681;29;20191;-75
2022/12/29 07:53:18;;;;;;;26.92;15.07;;;;;;;4.46;100.00;101750.41;4915212;29;20164;-74
2022/12/29 07:55:44;;;;;;;25.30;13.88;;;;;;;4.59;100.00;101744.66;4914993;29;20111;-75
2022/12/29 07:58:09;;;;;;;22.33;13.15;;;;;;;4.54;100.00;101711.00;4914748;29;20028;-74
2022/12/29 08:00:35;;;;;;;23.85;13.25;;;;;;;4.46;100.00;101683.91;4918384;29;20036;-74
2022/12/29 08:03:00;;;;;;;21.67;12.05;;;;;;;4.86;100.00;101740.88;4916706;29;20039;-76
2022/12/29 08:05:26;;;;;;;22.17;15.82;;;;;;;4.92;100.00;101743.94;4933875;29;20032;-74
2022/12/29 08:07:51;;;;;;;21.00;13.13;;;;;;;4.95;100.00;101756.94;4933935;29;20439;-73
2022/12/29 08:10:17;;;;;;;25.83;13.70;;;;;;;4.99;100.00;101756.41;4933374;29;20475;-74
2022/12/29 08:12:43;;;;;;;24.88;13.52;;;;;;;5.02;100.00;101755.75;4933868;29;20031;-74
2022/12/29 08:15:10;;;;;;;20.77;12.98;;;;;;;5.07;100.00;101758.69;4933536;29;20035;-74
2022/12/29 08:17:36;;;;;;;26.90;14.10;;;;;;;5.15;100.00;101763.66;4933717;29;20036;-74
2022/12/29 08:20:02;;;;;;;22.00;14.10;;;;;;;5.24;100.00;101772.84;4933706;29;20118;-75
2022/12/29 08:22:27;;;;;;;23.00;13.43;;;;;;;5.33;100.00;101779.59;4933497;29;20157;-73
2022/12/29 08:24:53;;;;;;;21.23;12.45;;;;;;;5.44;100.00;101779.56;4933504;29;20052;-72
2022/12/29 08:27:19;;;;;;;22.60;13.88;;;;;;;5.52;100.00;101770.81;4933630;29;20047;-73
2022/12/29 08:29:44;;;;;;;23.13;13.82;;;;;;;5.52;100.00;101760.56;4933402;29;20107;-73
2022/12/29 08:32:10;;;;;;;23.60;14.50;;;;;;;5.51;100.00;101740.84;4933300;29;20127;-73
2022/12/29 08:34:36;;;;;;;23.23;14.65;;;;;;;5.69;100.00;101750.72;4933411;29;20083;-73
2022/12/29 08:37:02;;;;;;;29.10;14.50;;;;;;;5.81;100.00;101762.81;4933565;29;20031;-73
2022/12/29 08:39:28;;;;;;;24.33;12.52;;;;;;;5.45;100.00;101704.50;4933600;29;20379;-73
2022/12/29 08:41:54;;;;;;;20.25;12.13;;;;;;;5.85;100.00;101770.75;4916391;29;20028;-74
2022/12/29 08:44:19;;;;;;;21.85;13.48;;;;;;;5.87;100.00;101764.06;4933444;29;20599;-74
2022/12/29 08:46:44;;;;;;;19.13;12.63;;;;;;;5.99;100.00;101754.78;4933758;29;20039;-73
2022/12/29 08:49:10;;;;;;;18.90;13.13;;;;;;;6.10;100.00;101759.03;4933603;29;20040;-73
2022/12/29 08:51:35;;;;;;;21.88;12.93;;;;;;;6.11;100.00;101754.81;4933166;29;20047;-73
2022/12/29 08:54:01;;;;;;;19.55;12.82;;;;;;;6.22;100.00;101750.47;4933110;29;20038;-73
2022/12/29 08:56:27;;;;;;;19.95;13.20;;;;;;;6.38;100.00;101750.88;4933617;29;20063;-73
2022/12/29 08:58:52;;;;;;;20.05;13.13;;;;;;;6.47;100.00;101748.09;4933514;29;20043;-73
2022/12/29 09:01:18;;;;;;;23.27;12.65;;;;;;;6.57;100.00;101745.44;4933316;29;20475;-73
2022/12/29 09:03:44;;;;;;;24.02;13.02;;;;;;;6.63;100.00;101745.00;4933396;29;20039;-73
2022/12/29 09:06:09;;;;;;;21.75;13.73;;;;;;;6.70;100.00;101729.25;4933497;29;20462;-73
2022/12/29 09:08:35;;;;;;;19.38;12.77;;;;;;;6.54;100.00;101695.56;4933370;29;20035;-73
2022/12/29 09:11:30;;;;;;;24.52;15.80;;;;;;;6.85;100.00;101726.91;4934837;29;20110;-73
2022/12/29 09:13:56;;;;;;;22.60;13.00;;;;;;;6.99;100.00;101716.72;4840795;29;20065;-73
2022/12/29 09:16:23;;;;;;;19.23;14.10;;;;;;;7.02;100.00;101717.84;4845068;29;20502;-72
2022/12/29 09:18:49;;;;;;;21.45;14.02;;;;;;;6.95;100.00;101685.72;4810172;29;20130;-73
2022/12/29 09:21:14;;;;;;;19.85;13.45;;;;;;;7.31;100.00;101710.44;4839657;29;20580;-73
2022/12/29 09:23:41;;;;;;;21.10;14.10;;;;;;;7.20;100.00;101668.56;4840449;29;20042;-73
2022/12/29 09:26:07;;;;;;;20.77;12.57;;;;;;;7.62;100.00;101703.16;4825266;29;20042;-73
2022/12/29 09:28:33;;;;;;;19.67;12.98;;;;;;;7.54;100.00;101692.38;4840555;29;20056;-72
2022/12/29 09:30:59;;;;;;;21.50;14.40;;;;;;;7.68;100.00;101695.88;4840544;29;20049;-73
2022/12/29 09:33:24;;;;;;;21.80;14.55;;;;;;;7.71;100.00;101687.47;4840385;29;20058;-73
2022/12/29 09:35:52;;;;;;;19.80;13.43;;;;;;;7.97;100.00;101696.06;4840473;29;20489;-73
2022/12/29 09:38:17;;;;;;;22.65;14.10;;;;;;;7.99;100.00;101703.09;4840225;29;20653;-73
2022/12/29 09:40:49;;;;;;;20.50;14.57;;;;;;;7.72;100.00;101650.72;4833721;29;20078;-73
2022/12/29 09:43:24;;;;;;;23.75;16.63;;;;;;;7.91;100.00;101656.31;4831517;29;20090;-73
2022/12/29 09:45:58;;;;;;;21.20;15.82;;;;;;;7.66;100.00;101619.44;4832329;29;20030;-73
2022/12/29 09:48:29;;;;;;;20.90;14.60;;;;;;;8.16;100.00;101687.91;4832264;29;20038;-74
2022/12/29 09:51:02;;;;;;;23.60;16.23;;;;;;;7.93;100.00;101674.41;4906152;29;20044;-74
2022/12/29 09:53:27;;;;;;;20.08;14.88;;;;;;;8.05;100.00;101684.59;4936409;29;20032;-72
2022/12/29 09:55:59;;;;;;;23.85;16.02;;;;;;;8.19;100.00;101671.00;4936267;29;20411;-73
2022/12/29 09:58:39;;;;;;;22.63;15.85;;;;;;;8.34;100.00;101676.25;4936218;29;20042;-73
2022/12/29 10:01:28;;;;;;;19.23;15.10;;;;;;;8.19;100.00;101671.00;4936380;29;20100;-73
2022/12/29 10:03:56;;;;;;;20.98;14.32;;;;;;;7.75;100.00;101604.63;4930213;29;20027;-73
2022/12/29 10:06:40;;;;;;;20.75;15.43;;;;;;;8.08;100.00;101635.94;4935790;29;20102;-74
2022/12/29 10:09:26;;;;;;;22.55;16.40;;;;;;;8.26;100.00;101662.88;4935969;29;20398;-73
2022/12/29 10:12:23;;;;;;;23.17;16.00;;;;;;;8.47;100.00;101662.50;4926881;29;20072;-74
2022/12/29 10:15:12;;;;;;;22.05;15.88;;;;;;;8.67;100.00;101652.63;4916491;29;20510;-73
2022/12/29 10:17:52;;;;;;;20.25;15.52;;;;;;;8.68;100.00;101644.09;4923415;29;20063;-72
2022/12/29 10:20:38;;;;;;;22.80;16.70;;;;;;;8.35;100.00;101621.44;4926344;29;20107;-71
2022/12/29 10:23:24;;;;;;;21.33;15.98;;;;;;;8.46;100.00;101660.75;4933781;29;20036;-72
2022/12/29 10:25:53;;;;;;;23.90;16.73;;;;;;;8.42;100.00;101651.00;4935534;29;20042;-72
2022/12/29 10:28:23;;;;;;;21.48;16.33;;;;;;;8.27;100.00;101604.59;4928577;29;20115;-71
2022/12/29 10:30:52;;;;;;;27.40;17.80;;;;;;;8.65;100.00;101643.91;4921546;29;20070;-72
2022/12/29 10:33:26;;;;;;;26.63;17.97;;;;;;;8.57;100.00;101643.41;4916461;29;20054;-74
2022/12/29 10:35:52;;;;;;;24.85;17.05;;;;;;;8.63;100.00;101633.50;4918925;29;20038;-73
2022/12/29 10:38:39;;;;;;;24.35;17.60;;;;;;;8.61;100.00;101634.22;4926597;29;20122;-73
2022/12/29 10:41:22;;;;;;;21.90;16.23;;;;;;;8.67;100.00;101625.22;4924879;29;20036;-73
2022/12/29 10:43:50;;;;;;;22.77;17.42;;;;;;;8.81;100.00;101627.75;4925475;29;20535;-72
2022/12/29 10:46:27;;;;;;;25.00;17.45;;;;;;;9.07;100.00;101621.63;4919787;29;20028;-72
2022/12/29 10:48:53;;;;;;;29.65;19.73;;;;;;;9.04;100.00;101581.13;4916819;29;20436;-73
2022/12/29 10:51:26;;;;;;;26.67;19.85;;;;;;;9.28;100.00;101611.75;4916515;29;20039;-72
2022/12/29 10:53:57;;;;;;;25.30;19.35;;;;;;;9.35;100.00;101616.47;4916183;29;20027;-72
2022/12/29 10:56:44;;;;;;;25.60;17.45;;;;;;;9.42;100.00;101615.19;4916720;29;20032;-72
2022/12/29 10:59:36;;;;;;;26.25;18.95;;;;;;;9.34;100.00;101601.81;4916284;29;20024;-72
2022/12/29 11:02:10;;;;;;;33.83;20.80;;;;;;;9.45;100.00;101610.19;4820864;29;20039;-72
2022/12/29 11:04:55;;;;;;;27.92;19.13;;;;;;;9.28;100.00;101600.56;4820887;29;20046;-72
2022/12/29 11:07:22;;;;;;;27.63;19.52;;;;;;;8.97;100.00;101572.94;4820839;29;20047;-72
2022/12/29 11:09:48;;;;;;;26.90;20.35;;;;;;;9.09;100.00;101591.72;4820661;29;20501;-72
2022/12/29 11:12:27;;;;;;;28.83;21.20;;;;;;;9.15;100.00;101592.09;4820746;29;20094;-72
2022/12/29 11:15:07;;;;;;;29.98;20.98;;;;;;;8.98;100.00;101549.84;4820910;29;20065;-73
2022/12/29 11:17:57;;;;;;;30.23;22.30;;;;;;;9.31;100.00;101590.41;4820856;29;20568;-71
2022/12/29 11:20:31;;;;;;;30.92;21.92;;;;;;;9.36;100.00;101577.03;4748663;30;20044;-72
2022/12/29 11:22:57;;;;;;;31.08;22.10;;;;;;;9.47;100.00;101579.34;4748878;30;20063;-73
2022/12/29 11:25:22;;;;;;;28.88;21.08;;;;;;;9.60;100.00;101563.81;4748792;30;20048;-72
2022/12/29 11:28:15;;;;;;;33.28;21.05;;;;;;;9.79;100.00;101572.63;4748751;30;20071;-72
2022/12/29 11:30:41;;;;;;;29.08;21.67;;;;;;;9.83;100.00;101560.00;4713283;30;20049;-72
2022/12/29 11:33:08;;;;;;;33.05;21.83;;;;;;;9.91;100.00;101565.59;4712705;30;20060;-72
2022/12/29 11:35:43;;;;;;;29.20;20.77;;;;;;;9.95;100.00;101548.59;4713538;30;20049;-72
2022/12/29 11:38:24;;;;;;;30.23;20.67;;;;;;;10.11;100.00;101558.09;4721660;30;20051;-72
2022/12/29 11:40:50;;;;;;;30.20;21.77;;;;;;;10.14;100.00;101551.41;4766243;30;20152;-72
2022/12/29 11:43:29;;;;;;;27.65;20.38;;;;;;;10.10;100.00;101546.88;4766122;30;20470;-72
2022/12/29 11:45:56;;;;;;;26.85;20.27;;;;;;;10.11;100.00;101555.50;4766311;30;20466;-73
2022/12/29 11:48:22;;;;;;;26.67;19.40;;;;;;;10.12;100.00;101545.28;4766083;30;20127;-73
2022/12/29 11:50:54;;;;;;;28.08;20.42;;;;;;;10.00;100.00;101529.97;4750558;30;20060;-73
2022/12/29 11:53:25;;;;;;;30.10;20.45;;;;;;;10.10;100.00;101531.38;4766239;30;20043;-73
2022/12/29 11:55:57;;;;;;;29.23;20.85;;;;;;;10.08;100.00;101526.94;4765804;30;20063;-72
2022/12/29 11:58:32;;;;;;;30.65;20.63;;;;;;;10.11;100.00;101521.97;4832753;29;20110;-71
2022/12/29 12:01:06;;;;;;;30.55;20.20;;;;;;;10.20;100.00;101528.53;4838497;29;20042;-72
2022/12/29 12:03:37;;;;;;;28.50;20.13;;;;;;;10.10;100.00;101499.53;4838410;29;20128;-72
2022/12/29 12:06:03;;;;;;;27.00;21.17;;;;;;;10.26;100.00;101520.22;4838210;29;20500;-72
2022/12/29 12:08:58;;;;;;;28.75;20.77;;;;;;;10.18;100.00;101508.59;4907881;29;20048;-72